Time;durP1;ratioP1;P1;durP2;ratioP2;P2;SDS_P1;SDS_P2;PMS_P1;PMS_P2;Temp;Humidity;BMP_temperature;BMP_pressure;BME280_temperature;BME280_humidity;BME280_pressure;Samples;Min_cycle;Max_cycle;Signal;HPM_P1;HPM_P2
2022/11/04 00:01:38;;;;;;;6.40;2.17;;;;;;;13.98;62.08;99804.69;5067212;27;96957;-80
2022/11/04 00:04:04;;;;;;;4.30;2.27;;;;;;;13.98;61.96;99809.47;5035331;27;100412;-81
2022/11/04 00:06:29;;;;;;;3.20;2.07;;;;;;;14.01;61.88;99805.66;5067231;27;96715;-81
2022/11/04 00:08:58;;;;;;;2.60;1.90;;;;;;;14.02;62.01;99798.84;5070657;27;96456;-81
2022/11/04 00:14:10;;;;;;;3.77;2.07;;;;;;;14.04;61.91;99804.59;5062812;27;97156;-81
2022/11/04 00:19:19;;;;;;;2.33;2.13;;;;;;;14.08;61.98;99807.75;5050898;27;97263;-80
2022/11/04 00:30:04;;;;;;;2.40;2.20;;;;;;;14.08;61.80;99796.69;5064636;27;97390;-81
2022/11/04 00:35:15;;;;;;;2.87;2.03;;;;;;;14.08;62.07;99791.16;5057235;27;101333;-80
2022/11/04 00:37:42;;;;;;;7.20;2.40;;;;;;;14.09;61.91;99798.91;5063432;27;96803;-80
2022/11/04 00:40:10;;;;;;;2.53;1.77;;;;;;;14.08;62.24;99793.94;5064833;27;96937;-81
2022/11/04 00:42:36;;;;;;;2.37;1.70;;;;;;;14.06;62.31;99807.56;5080206;27;102779;-80
2022/11/04 00:45:02;;;;;;;2.33;1.97;;;;;;;14.03;62.25;99812.13;5048735;27;99305;-81
2022/11/04 00:47:27;;;;;;;2.27;1.90;;;;;;;14.04;62.36;99804.59;5049341;27;97114;-81
2022/11/04 00:49:52;;;;;;;2.93;2.00;;;;;;;14.07;62.39;99806.25;5041886;27;97329;-82
2022/11/04 00:52:18;;;;;;;3.10;2.10;;;;;;;14.07;62.60;99806.25;5047785;27;98975;-81
2022/11/04 00:54:44;;;;;;;5.63;1.80;;;;;;;14.07;62.35;99820.09;5059721;27;97063;-82
2022/11/04 00:57:13;;;;;;;4.60;2.10;;;;;;;14.11;62.51;99818.47;5038017;27;97436;-82
2022/11/04 00:59:39;;;;;;;2.50;1.80;;;;;;;14.10;62.54;99827.31;5062841;27;97390;-82
2022/11/04 01:02:06;;;;;;;2.90;2.00;;;;;;;14.12;62.49;99816.47;5064765;27;98214;-82
2022/11/04 01:04:31;;;;;;;2.23;2.00;;;;;;;14.16;62.58;99819.63;5046045;27;97410;-81
2022/11/04 01:06:57;;;;;;;2.50;1.97;;;;;;;14.18;62.36;99812.28;5047353;27;96811;-82
2022/11/04 01:09:23;;;;;;;4.67;2.37;;;;;;;14.24;62.43;99820.47;5044583;27;97175;-82
2022/11/04 01:11:48;;;;;;;2.80;2.40;;;;;;;14.25;62.54;99810.88;5060877;27;96766;-82
2022/11/04 01:14:13;;;;;;;2.40;2.13;;;;;;;14.24;62.50;99823.25;5046424;27;97016;-83
2022/11/04 01:16:39;;;;;;;3.73;2.30;;;;;;;14.25;62.36;99819.19;5040215;27;97147;-82
2022/11/04 01:19:05;;;;;;;3.00;2.00;;;;;;;14.26;62.55;99823.47;5044102;27;97417;-82
2022/11/04 01:21:31;;;;;;;2.60;1.90;;;;;;;14.24;62.49;99826.03;5044819;27;97575;-82
2022/11/04 01:23:58;;;;;;;2.30;2.00;;;;;;;14.25;62.58;99830.25;5039983;27;97188;-81
2022/11/04 01:26:25;;;;;;;3.03;2.20;;;;;;;14.26;62.63;99823.47;5057312;27;96972;-81
2022/11/04 01:28:53;;;;;;;2.50;2.17;;;;;;;14.29;62.53;99816.84;5040096;27;96692;-81
2022/11/04 01:31:25;;;;;;;2.63;2.40;;;;;;;14.31;62.76;99819.81;5024438;27;104967;-81
2022/11/04 01:33:52;;;;;;;3.70;2.40;;;;;;;14.31;62.61;99825.34;5029505;27;100428;-81
2022/11/04 01:36:19;;;;;;;5.17;2.60;;;;;;;14.32;62.68;99826.09;5043746;27;97495;-81
2022/11/04 01:38:45;;;;;;;2.40;2.20;;;;;;;14.33;62.81;99828.34;5038385;27;97178;-81
2022/11/04 01:41:23;;;;;;;2.37;2.10;;;;;;;14.35;62.87;99834.06;5040273;27;98401;-82
2022/11/04 01:43:48;;;;;;;2.50;2.30;;;;;;;14.35;62.62;99825.75;5043263;27;98605;-81
2022/11/04 01:46:25;;;;;;;2.93;2.17;;;;;;;14.32;63.13;99846.22;5053266;27;97045;-81
2022/11/04 01:48:52;;;;;;;4.53;2.83;;;;;;;14.33;62.68;99841.44;5059113;27;96841;-81
2022/11/04 01:51:19;;;;;;;4.10;2.40;;;;;;;14.31;62.66;99811.53;5062628;27;97353;-81
2022/11/04 01:53:46;;;;;;;2.50;2.17;;;;;;;14.33;62.82;99817.25;5067180;27;97297;-81
2022/11/04 01:56:14;;;;;;;3.13;2.20;;;;;;;14.31;62.94;99821.88;5057481;27;96880;-80
2022/11/04 01:58:47;;;;;;;3.63;2.63;;;;;;;14.33;62.99;99806.19;5041685;27;97478;-80
2022/11/04 02:01:13;;;;;;;3.63;2.23;;;;;;;14.32;62.84;99807.50;5040050;27;98849;-81
2022/11/04 02:06:47;;;;;;;3.70;2.40;;;;;;;14.30;62.87;99818.34;5058603;27;97355;-80
2022/11/04 02:09:15;;;;;;;2.50;2.30;;;;;;;14.30;62.94;99829.41;5048200;27;96804;-81
2022/11/04 02:14:24;;;;;;;2.37;2.17;;;;;;;14.27;62.93;99830.47;5062376;27;97375;-80
2022/11/04 02:16:54;;;;;;;1.90;1.80;;;;;;;14.26;63.08;99849.06;5049342;27;97093;-81
2022/11/04 02:19:53;;;;;;;2.60;2.40;;;;;;;14.25;63.80;99839.31;5048155;27;97066;-80
2022/11/04 02:22:43;;;;;;;5.23;2.80;;;;;;;14.25;63.84;99824.72;5029637;27;102952;-81
2022/11/04 02:25:30;;;;;;;2.83;1.90;;;;;;;14.23;63.87;99836.34;5041512;27;102671;-81
2022/11/04 02:28:23;;;;;;;2.10;2.00;;;;;;;14.22;63.50;99823.78;5048939;27;97097;-81
2022/11/04 02:31:16;;;;;;;3.10;2.80;;;;;;;14.20;64.04;99820.06;5039511;27;97034;-82
2022/11/04 02:34:10;;;;;;;8.70;2.83;;;;;;;14.20;64.24;99812.50;5067994;27;97043;-81
2022/11/04 02:36:57;;;;;;;2.43;2.33;;;;;;;14.24;63.65;99817.72;5052059;27;100531;-81
2022/11/04 02:39:28;;;;;;;3.00;2.30;;;;;;;14.26;63.40;99823.47;5049671;27;97038;-81
2022/11/04 02:42:22;;;;;;;2.90;2.70;;;;;;;14.26;64.28;99824.19;5060770;27;97047;-82
2022/11/04 02:44:57;;;;;;;2.13;2.03;;;;;;;14.28;63.61;99835.44;5066812;27;102522;-82
2022/11/04 02:47:27;;;;;;;3.50;2.33;;;;;;;14.32;63.47;99837.19;5067610;27;97726;-82
2022/11/04 02:50:05;;;;;;;3.43;2.30;;;;;;;14.34;63.68;99829.81;5060790;27;98091;-81
2022/11/04 02:52:48;;;;;;;3.13;2.53;;;;;;;14.36;63.41;99832.81;5071608;27;97171;-81
2022/11/04 02:55:21;;;;;;;2.63;2.37;;;;;;;14.36;63.56;99843.88;5034544;27;103820;-80
2022/11/04 02:57:49;;;;;;;2.47;2.27;;;;;;;14.39;63.42;99842.81;5052056;27;97009;-81
2022/11/04 03:00:15;;;;;;;4.57;2.70;;;;;;;14.38;63.56;99846.84;5070548;27;97174;-80
2022/11/04 03:02:45;;;;;;;4.40;2.60;;;;;;;14.42;63.75;99852.03;5046443;27;96381;-80
2022/11/04 03:05:19;;;;;;;3.30;2.37;;;;;;;14.42;63.75;99847.25;5050229;27;102953;-81
2022/11/04 03:07:47;;;;;;;7.67;2.77;;;;;;;14.44;63.56;99835.66;5069399;27;100344;-80
2022/11/04 03:10:24;;;;;;;4.37;1.93;;;;;;;14.43;63.97;99842.47;5077359;27;97469;-80
2022/11/04 03:13:34;;;;;;;2.23;2.00;;;;;;;14.39;64.09;99834.50;5075552;27;97199;-80
2022/11/04 03:16:04;;;;;;;2.17;1.97;;;;;;;14.40;63.68;99838.00;4994608;27;102072;-80
2022/11/04 03:18:35;;;;;;;2.57;2.03;;;;;;;14.40;63.69;99844.28;5042622;27;98480;-81
2022/11/04 03:21:04;;;;;;;2.83;2.63;;;;;;;14.38;63.76;99844.06;5049335;27;96851;-81
2022/11/04 03:23:31;;;;;;;2.30;2.20;;;;;;;14.37;63.96;99848.13;5041264;27;97231;-81
2022/11/04 03:26:26;;;;;;;2.90;2.60;;;;;;;14.39;64.48;99853.88;5043276;27;99551;-81
2022/11/04 03:29:19;;;;;;;3.53;2.73;;;;;;;14.39;63.95;99859.41;5021118;27;101528;-81
2022/11/04 03:32:08;;;;;;;3.20;2.47;;;;;;;14.39;63.96;99862.19;5061394;27;97103;-81
2022/11/04 03:34:34;;;;;;;2.40;2.03;;;;;;;14.37;63.88;99859.19;5041905;27;96991;-82
2022/11/04 03:37:00;;;;;;;8.27;2.80;;;;;;;14.37;63.91;99886.88;5047413;27;98673;-81
2022/11/04 03:39:26;;;;;;;2.47;2.10;;;;;;;14.37;64.02;99888.88;5045210;27;97497;-81
2022/11/04 03:41:56;;;;;;;1.83;1.73;;;;;;;14.39;64.04;99895.38;5043450;27;96902;-81
2022/11/04 03:44:23;;;;;;;3.13;2.27;;;;;;;14.41;63.86;99895.59;5045741;27;97024;-81
2022/11/04 03:46:51;;;;;;;2.00;1.90;;;;;;;14.38;63.77;99916.03;5049114;27;99513;-81
2022/11/04 03:49:17;;;;;;;2.97;1.40;;;;;;;14.36;63.74;99921.34;5048056;27;97278;-84
2022/11/04 03:51:42;;;;;;;2.40;1.47;;;;;;;14.30;63.94;99914.44;5046931;27;97017;-82
2022/11/04 03:54:08;;;;;;;1.50;1.40;;;;;;;14.29;63.88;99930.28;5048751;27;97307;-81
2022/11/04 03:56:50;;;;;;;1.40;1.30;;;;;;;14.28;63.89;99932.28;5050891;27;96801;-82
2022/11/04 03:59:34;;;;;;;1.00;1.00;;;;;;;14.27;63.82;99939.09;5055053;27;97663;-82
2022/11/04 04:02:04;;;;;;;1.90;0.70;;;;;;;14.27;63.69;99939.09;5048900;27;96910;-81
2022/11/04 04:04:35;;;;;;;0.83;0.83;;;;;;;14.29;63.74;99944.13;5047313;27;97263;-81
2022/11/04 04:07:07;;;;;;;1.60;1.00;;;;;;;14.30;63.62;99945.63;5064982;27;97234;-81
2022/11/04 04:09:49;;;;;;;0.70;0.70;;;;;;;14.24;63.84;99948.47;5066553;27;97038;-82
2022/11/04 04:12:27;;;;;;;0.87;0.80;;;;;;;14.22;63.58;99959.31;5043719;27;97412;-83
2022/11/04 04:15:07;;;;;;;1.53;1.00;;;;;;;14.21;63.71;99966.16;5061407;27;97154;-82
2022/11/04 04:17:38;;;;;;;3.17;1.00;;;;;;;14.17;63.57;99971.28;5063284;27;99701;-81
2022/11/04 04:20:06;;;;;;;1.13;0.80;;;;;;;14.13;63.53;99970.81;5060522;27;98415;-81
2022/11/04 04:22:45;;;;;;;0.90;0.90;;;;;;;14.09;63.73;99986.25;5040981;27;96913;-83
2022/11/04 04:28:00;;;;;;;0.80;0.80;;;;;;;14.09;63.37;99980.72;5061441;27;100419;-81
2022/11/04 04:30:26;;;;;;;0.80;0.80;;;;;;;14.09;63.46;99977.94;5047527;27;100758;-82
2022/11/04 04:33:07;;;;;;;1.30;1.10;;;;;;;14.12;63.55;99983.19;5065106;27;96474;-81
2022/11/04 04:35:42;;;;;;;1.20;1.10;;;;;;;14.15;63.55;99982.09;5045357;27;97156;-86
2022/11/04 04:46:48;;;;;;;0.70;0.70;;;;;;;14.14;63.06;100004.78;5060951;27;97495;-82
2022/11/04 04:49:14;;;;;;;1.13;1.13;;;;;;;14.15;63.13;100006.28;5039455;27;98514;-82
2022/11/04 04:51:46;;;;;;;1.37;1.27;;;;;;;14.14;63.07;100005.53;5040229;27;99927;-83
2022/11/04 04:54:12;;;;;;;1.57;1.47;;;;;;;14.14;63.04;100011.06;5073232;27;96607;-83
2022/11/04 04:56:39;;;;;;;1.50;1.30;;;;;;;14.15;62.96;100012.53;5052003;27;97010;-82
2022/11/04 04:59:05;;;;;;;1.40;1.30;;;;;;;14.17;62.96;100020.31;5046551;27;97531;-83
2022/11/04 05:01:31;;;;;;;1.17;1.17;;;;;;;14.18;62.86;100028.06;5024636;28;98236;-85
2022/11/04 05:03:56;;;;;;;2.73;1.30;;;;;;;14.18;63.08;100013.50;5039514;27;97088;-82
2022/11/04 05:06:22;;;;;;;1.50;1.40;;;;;;;14.19;62.83;100004.69;5063930;27;97295;-82
2022/11/04 05:08:47;;;;;;;1.53;1.30;;;;;;;14.17;62.84;100010.00;5040785;27;98404;-81
2022/11/04 05:11:13;;;;;;;1.27;1.20;;;;;;;14.15;62.83;100001.47;5041224;27;99024;-82
2022/11/04 05:13:38;;;;;;;2.00;1.90;;;;;;;14.15;62.82;100020.81;5040906;27;97198;-84
2022/11/04 05:16:07;;;;;;;1.83;1.73;;;;;;;14.14;62.84;100013.06;5045395;27;97141;-82
2022/11/04 05:18:33;;;;;;;1.73;1.50;;;;;;;14.14;62.84;100019.34;5046801;27;97684;-84
2022/11/04 05:21:02;;;;;;;2.10;1.50;;;;;;;14.12;62.81;100030.22;5039911;27;96916;-83
2022/11/04 05:23:28;;;;;;;2.03;1.80;;;;;;;14.12;62.54;100021.91;5047565;27;96908;-82
2022/11/04 05:25:53;;;;;;;1.83;1.73;;;;;;;14.15;62.56;100031.16;5045658;27;97411;-83
2022/11/04 05:28:19;;;;;;;2.50;1.70;;;;;;;14.13;62.53;100020.63;5045440;27;99693;-83
2022/11/04 05:30:44;;;;;;;1.60;1.50;;;;;;;14.15;62.40;100040.19;5060801;27;97268;-82
2022/11/04 05:33:09;;;;;;;1.70;1.50;;;;;;;14.09;62.52;100039.56;5044178;27;97117;-82
2022/11/04 05:35:35;;;;;;;2.20;2.00;;;;;;;14.07;62.43;100039.34;5044042;27;97272;-81
2022/11/04 05:38:00;;;;;;;2.00;1.90;;;;;;;14.05;62.33;100047.44;5057482;27;96969;-81
2022/11/04 05:40:26;;;;;;;1.80;1.70;;;;;;;14.05;62.41;100052.97;5044216;27;98552;-79
2022/11/04 05:42:51;;;;;;;2.00;1.90;;;;;;;14.04;62.37;100065.28;5063656;27;97215;-80
2022/11/04 05:45:17;;;;;;;2.60;2.40;;;;;;;14.05;62.31;100054.97;5061426;27;97415;-82
2022/11/04 05:47:42;;;;;;;2.33;2.23;;;;;;;14.04;62.41;100078.41;5060399;27;98788;-83
2022/11/04 05:50:08;;;;;;;2.87;2.67;;;;;;;14.04;62.35;100079.13;5045813;27;97863;-81
2022/11/04 05:52:33;;;;;;;4.90;2.73;;;;;;;14.02;62.32;100087.19;5058388;27;96661;-81
2022/11/04 05:54:58;;;;;;;2.70;2.60;;;;;;;14.04;62.38;100072.88;5046508;27;96818;-83
2022/11/04 05:57:24;;;;;;;2.40;2.30;;;;;;;14.02;62.35;100065.06;5063992;27;97169;-81
2022/11/04 05:59:49;;;;;;;3.00;2.60;;;;;;;14.05;62.18;100068.81;5041760;27;96660;-81
2022/11/04 06:02:15;;;;;;;3.03;2.60;;;;;;;14.01;62.39;100074.66;5046340;27;97387;-84
2022/11/04 06:04:40;;;;;;;2.50;2.40;;;;;;;13.99;62.34;100079.22;5046750;27;96855;-85
2022/11/04 06:07:06;;;;;;;3.20;2.60;;;;;;;13.96;61.99;100094.09;5042842;27;98253;-84
2022/11/04 06:09:37;;;;;;;2.60;2.40;;;;;;;13.89;62.12;100089.94;5061753;27;99122;-83
2022/11/04 06:12:14;;;;;;;2.00;1.90;;;;;;;13.88;61.96;100104.31;5045045;27;97507;-81
2022/11/04 06:14:41;;;;;;;2.70;2.50;;;;;;;13.88;62.02;100090.47;5041633;27;97124;-81
2022/11/04 06:17:06;;;;;;;2.37;2.20;;;;;;;13.84;61.95;100093.56;5037474;27;97922;-84
2022/11/04 06:19:32;;;;;;;2.30;2.10;;;;;;;13.84;62.17;100104.63;5059045;27;97639;-81
2022/11/04 06:21:58;;;;;;;2.60;2.40;;;;;;;13.85;61.80;100108.88;5063104;27;97127;-83
2022/11/04 06:24:23;;;;;;;2.43;2.33;;;;;;;13.86;61.91;100126.22;5055319;27;97173;-82
2022/11/04 06:26:49;;;;;;;3.40;2.50;;;;;;;13.87;61.88;100120.16;5060337;27;96898;-83
2022/11/04 06:29:14;;;;;;;2.10;2.00;;;;;;;13.90;61.82;100135.69;5045274;27;97372;-81
2022/11/04 06:31:40;;;;;;;2.30;2.20;;;;;;;13.91;61.73;100128.88;5042916;27;97903;-85
2022/11/04 06:34:05;;;;;;;2.27;2.17;;;;;;;13.89;61.67;100117.59;5031277;27;97331;-81
2022/11/04 06:36:30;;;;;;;2.20;2.10;;;;;;;13.93;61.85;100120.06;5017724;27;98022;-81
2022/11/04 06:38:56;;;;;;;2.43;2.23;;;;;;;13.95;61.63;100143.16;5024621;27;99842;-82
2022/11/04 06:41:21;;;;;;;1.60;1.60;;;;;;;13.96;61.64;100144.63;5026695;27;97062;-81
2022/11/04 06:43:47;;;;;;;2.20;2.00;;;;;;;13.94;61.54;100152.72;5041950;27;97419;-81
2022/11/04 06:46:24;;;;;;;2.83;2.17;;;;;;;13.96;61.36;100143.88;5042809;27;98302;-83
2022/11/04 06:48:49;;;;;;;3.53;2.27;;;;;;;13.94;61.54;100158.25;5057274;27;98021;-81
2022/11/04 06:51:15;;;;;;;2.60;2.40;;;;;;;13.96;61.47;100163.25;5063932;27;97307;-80
2022/11/04 06:53:40;;;;;;;2.63;2.50;;;;;;;13.94;61.51;100180.38;5045488;27;97028;-82
2022/11/04 06:56:06;;;;;;;3.00;2.77;;;;;;;13.94;61.39;100190.69;5046412;27;98480;-81
2022/11/04 06:58:31;;;;;;;2.40;2.20;;;;;;;13.97;61.41;100195.91;5046365;27;96835;-81
2022/11/04 07:00:57;;;;;;;2.90;2.80;;;;;;;13.97;61.28;100187.63;5063826;27;97629;-81
2022/11/04 07:03:22;;;;;;;3.00;2.80;;;;;;;13.98;61.35;100208.47;5045557;27;97206;-81
2022/11/04 07:05:48;;;;;;;3.20;2.97;;;;;;;13.93;61.34;100225.91;5042024;27;99192;-82
2022/11/04 07:08:13;;;;;;;2.87;2.67;;;;;;;13.99;61.39;100218.25;5045226;27;98915;-82
2022/11/04 07:10:39;;;;;;;2.50;2.40;;;;;;;14.00;61.39;100205.19;5059351;27;97641;-82
2022/11/04 07:13:05;;;;;;;3.27;2.83;;;;;;;13.98;61.34;100191.13;5044512;27;96866;-80
2022/11/04 07:15:31;;;;;;;2.70;2.50;;;;;;;13.98;61.24;100185.59;5061083;27;97465;-82
2022/11/04 07:17:58;;;;;;;2.93;2.73;;;;;;;13.97;61.31;100176.56;5048184;27;98022;-83
2022/11/04 07:20:23;;;;;;;3.00;2.80;;;;;;;13.99;61.11;100181.56;5049121;27;97169;-82
2022/11/04 07:22:49;;;;;;;2.57;2.47;;;;;;;13.99;61.28;100203.69;5047117;27;97336;-82
2022/11/04 07:25:14;;;;;;;3.27;2.97;;;;;;;14.03;61.02;100193.06;5046685;27;97143;-82
2022/11/04 07:27:40;;;;;;;2.57;2.37;;;;;;;14.03;61.07;100193.06;5047402;27;98730;-81
2022/11/04 07:30:06;;;;;;;2.90;2.80;;;;;;;14.08;61.18;100203.28;5043362;27;97303;-82
2022/11/04 07:32:32;;;;;;;2.90;2.80;;;;;;;14.07;61.00;100188.72;5048876;27;96922;-82
2022/11/04 07:34:57;;;;;;;2.93;2.83;;;;;;;14.07;60.87;100193.50;5065042;27;98894;-81
2022/11/04 07:37:22;;;;;;;2.37;2.27;;;;;;;14.08;61.00;100195.75;5043866;27;98140;-81
2022/11/04 07:39:48;;;;;;;2.37;2.27;;;;;;;14.09;60.85;100202.00;5046741;27;96996;-82
2022/11/04 07:42:13;;;;;;;2.20;2.10;;;;;;;14.12;61.02;100204.47;5061723;27;97136;-82
2022/11/04 07:44:39;;;;;;;2.47;2.37;;;;;;;14.11;60.84;100204.97;5043897;27;99040;-81
2022/11/04 07:47:04;;;;;;;2.03;1.83;;;;;;;14.06;61.00;100206.59;5024580;27;97998;-82
2022/11/04 07:49:29;;;;;;;2.90;2.70;;;;;;;14.12;61.03;100214.78;5025205;27;96901;-82
2022/11/04 07:51:55;;;;;;;3.30;2.63;;;;;;;14.15;61.03;100241.41;5043986;27;97502;-81
2022/11/04 07:54:20;;;;;;;2.83;2.40;;;;;;;14.16;60.77;100223.53;5043045;27;97625;-82
2022/11/04 07:56:46;;;;;;;2.80;2.60;;;;;;;14.16;60.85;100231.81;5071647;27;98491;-82
2022/11/04 07:59:11;;;;;;;2.73;2.63;;;;;;;14.17;60.69;100236.84;5062848;27;96819;-82
2022/11/04 08:01:37;;;;;;;4.13;3.00;;;;;;;14.17;60.72;100225.78;5061572;27;97220;-82
2022/11/04 08:04:04;;;;;;;2.50;2.40;;;;;;;14.18;60.93;100237.56;5048548;27;97392;-81
2022/11/04 08:06:29;;;;;;;2.80;2.30;;;;;;;14.18;60.75;100237.56;5045301;27;97636;-82
2022/11/04 08:08:57;;;;;;;2.77;2.57;;;;;;;14.20;60.63;100244.06;5043518;27;97282;-82
2022/11/04 08:11:27;;;;;;;2.53;2.43;;;;;;;14.20;60.70;100257.91;5048224;27;97855;-82
2022/11/04 08:13:54;;;;;;;2.73;2.63;;;;;;;14.18;60.64;100241.09;5061451;27;98988;-82
2022/11/04 08:16:22;;;;;;;3.27;2.53;;;;;;;14.21;60.68;100245.59;5061189;27;97289;-81
2022/11/04 08:18:50;;;;;;;5.07;2.30;;;;;;;14.26;60.64;100244.00;5045349;27;97078;-81
2022/11/04 08:21:16;;;;;;;3.23;2.80;;;;;;;14.25;60.45;100259.09;5048361;27;97300;-83
2022/11/04 08:23:41;;;;;;;2.80;2.60;;;;;;;14.27;60.43;100254.53;5044957;27;99956;-81
2022/11/04 08:26:11;;;;;;;3.10;2.53;;;;;;;14.28;60.48;100255.28;5042979;27;97182;-81
2022/11/04 08:28:38;;;;;;;2.40;2.23;;;;;;;14.30;60.59;100250.00;5048803;27;97358;-80
2022/11/04 08:31:07;;;;;;;2.90;2.70;;;;;;;14.34;60.42;100255.22;5039231;27;97096;-81
2022/11/04 08:33:34;;;;;;;2.53;2.33;;;;;;;14.40;60.58;100269.69;5048654;27;98957;-82
2022/11/04 08:36:05;;;;;;;2.90;2.60;;;;;;;14.44;60.44;100261.88;5026486;27;98257;-81
2022/11/04 08:38:30;;;;;;;2.97;2.77;;;;;;;14.44;60.26;100275.69;5030854;27;97068;-81
2022/11/04 08:41:00;;;;;;;2.37;2.27;;;;;;;14.46;60.17;100271.09;5048033;27;97451;-81
2022/11/04 08:43:25;;;;;;;2.30;2.20;;;;;;;14.49;60.30;100277.59;5034584;27;97086;-83
2022/11/04 08:45:51;;;;;;;3.23;1.90;;;;;;;14.48;60.21;100273.38;5020611;27;98067;-81
2022/11/04 08:48:17;;;;;;;2.77;2.63;;;;;;;14.51;60.22;100291.66;5045384;27;97103;-82
2022/11/04 08:50:47;;;;;;;2.90;2.40;;;;;;;14.52;60.25;100276.56;5045175;27;97848;-82
2022/11/04 08:53:12;;;;;;;2.50;2.30;;;;;;;14.49;60.15;100286.66;5034343;27;103015;-84
2022/11/04 08:55:39;;;;;;;4.80;2.40;;;;;;;14.47;60.27;100289.22;5046486;27;98592;-81
2022/11/04 08:58:04;;;;;;;4.10;2.23;;;;;;;14.49;60.07;100297.75;5046732;27;97274;-82
2022/11/04 09:00:31;;;;;;;2.70;2.50;;;;;;;14.49;60.25;100278.38;5061536;27;97001;-84
2022/11/04 09:02:57;;;;;;;2.20;1.93;;;;;;;14.47;60.24;100269.09;5046528;27;97974;-81
2022/11/04 09:05:24;;;;;;;3.17;2.37;;;;;;;14.49;60.12;100277.59;5046378;27;101999;-83
2022/11/04 09:07:49;;;;;;;2.20;1.90;;;;;;;14.44;59.95;100272.94;5044049;27;96953;-83
2022/11/04 09:10:16;;;;;;;2.23;2.03;;;;;;;14.45;60.01;100282.72;5044356;27;97161;-81
2022/11/04 09:12:42;;;;;;;2.43;2.23;;;;;;;14.45;59.90;100275.16;5064844;27;98412;-81
2022/11/04 09:15:08;;;;;;;2.27;2.10;;;;;;;14.46;59.87;100284.94;5043348;27;98711;-81
2022/11/04 09:17:33;;;;;;;2.17;1.80;;;;;;;14.52;60.20;100299.47;5046032;27;96715;-80
2022/11/04 09:19:59;;;;;;;2.57;2.47;;;;;;;14.56;60.10;100293.59;5045662;27;96837;-80
2022/11/04 09:22:24;;;;;;;2.27;2.07;;;;;;;14.57;60.05;100292.34;5046392;27;97668;-81
2022/11/04 09:24:50;;;;;;;1.83;1.73;;;;;;;14.57;59.92;100303.41;5062424;27;97476;-84
2022/11/04 09:27:15;;;;;;;1.90;1.80;;;;;;;14.51;59.89;100295.19;5047753;27;97097;-82
2022/11/04 09:29:41;;;;;;;2.67;2.47;;;;;;;14.55;59.90;100294.88;5046008;27;97086;-81
2022/11/04 09:32:07;;;;;;;2.47;2.27;;;;;;;14.57;59.77;100300.66;5045479;27;97395;-81
2022/11/04 09:34:33;;;;;;;2.23;2.10;;;;;;;14.50;59.71;100293.72;5064178;27;97750;-82
2022/11/04 09:36:58;;;;;;;2.90;2.30;;;;;;;14.56;59.68;100294.38;5048975;27;97092;-81
2022/11/04 09:39:24;;;;;;;2.10;1.90;;;;;;;14.59;59.67;100315.44;5043184;27;97308;-82
2022/11/04 09:41:59;;;;;;;2.03;1.90;;;;;;;14.60;59.42;100305.88;5030112;27;99683;-82
2022/11/04 09:44:36;;;;;;;1.70;1.60;;;;;;;14.61;59.62;100312.16;5033883;27;97596;-80
2022/11/04 09:47:02;;;;;;;1.87;1.77;;;;;;;14.59;59.68;100311.94;5040173;27;96693;-80
2022/11/04 09:49:34;;;;;;;2.17;1.93;;;;;;;14.61;59.63;100301.81;5044336;27;96838;-82
2022/11/04 09:52:02;;;;;;;5.73;2.13;;;;;;;14.60;59.65;100311.41;5046359;27;98138;-81
2022/11/04 09:54:37;;;;;;;1.90;1.80;;;;;;;14.63;59.47;100296.50;5058369;27;97541;-80
2022/11/04 09:57:04;;;;;;;2.50;1.70;;;;;;;14.65;59.62;100307.81;5060878;27;97551;-80
2022/11/04 09:59:33;;;;;;;2.60;2.13;;;;;;;14.70;59.59;100314.53;5055186;27;97023;-81
2022/11/04 10:02:07;;;;;;;2.10;2.00;;;;;;;14.69;59.22;100308.25;5064254;27;97235;-81
2022/11/04 10:05:14;;;;;;;2.47;2.27;;;;;;;14.71;59.17;100305.69;5036473;27;96912;-80
2022/11/04 10:08:06;;;;;;;2.70;2.17;;;;;;;14.76;59.39;100295.78;4991092;27;96960;-81
2022/11/04 10:10:49;;;;;;;2.57;2.37;;;;;;;14.81;59.17;100301.22;5042004;27;97576;-81
2022/11/04 10:13:42;;;;;;;2.50;1.90;;;;;;;14.89;59.22;100291.03;5047442;27;98940;-80
2022/11/04 10:16:13;;;;;;;1.57;1.57;;;;;;;14.96;59.08;100284.09;5044474;27;102947;-80
2022/11/04 10:18:47;;;;;;;2.80;1.83;;;;;;;15.02;59.09;100284.75;5055239;27;96682;-83
2022/11/04 10:21:26;;;;;;;1.63;1.53;;;;;;;15.06;58.84;100296.25;5046944;27;96848;-80
2022/11/04 10:24:22;;;;;;;2.00;1.90;;;;;;;15.09;58.66;100283.38;5043035;27;98126;-80
2022/11/04 10:26:50;;;;;;;2.27;1.90;;;;;;;15.22;58.97;100283.38;5025548;27;102896;-80
2022/11/04 10:29:27;;;;;;;2.10;1.90;;;;;;;15.27;58.60;100290.81;5045536;27;97027;-84
2022/11/04 10:31:54;;;;;;;1.80;1.70;;;;;;;15.22;58.69;100300.00;5039588;27;97188;-80
2022/11/04 10:34:42;;;;;;;2.30;2.20;;;;;;;15.24;58.21;100308.53;5056275;27;98410;-81
2022/11/04 10:37:10;;;;;;;6.20;2.20;;;;;;;15.29;58.79;100297.31;5060041;27;96677;-81
2022/11/04 10:39:44;;;;;;;2.33;2.13;;;;;;;15.35;58.63;100292.44;5042105;27;97106;-80
2022/11/04 10:42:18;;;;;;;2.00;1.90;;;;;;;15.43;58.41;100307.16;5038070;27;97212;-81
2022/11/04 10:44:46;;;;;;;1.70;1.60;;;;;;;15.48;58.46;100300.78;5039986;27;98387;-82
2022/11/04 10:47:14;;;;;;;2.20;2.07;;;;;;;15.55;58.28;100318.78;5061743;27;97098;-82
2022/11/04 10:49:54;;;;;;;4.30;2.03;;;;;;;15.57;57.93;100328.03;5048552;27;96973;-82
2022/11/04 10:52:20;;;;;;;3.00;2.70;;;;;;;15.58;58.25;100354.50;5032427;27;97384;-81
2022/11/04 10:54:48;;;;;;;2.33;2.13;;;;;;;15.58;58.03;100350.97;5065020;27;99039;-83
2022/11/04 10:57:20;;;;;;;3.60;2.37;;;;;;;15.63;58.07;100352.91;5047343;27;99170;-81
2022/11/04 10:59:54;;;;;;;2.73;2.30;;;;;;;15.73;58.18;100359.50;5042558;27;97406;-82
2022/11/04 11:02:44;;;;;;;2.40;2.00;;;;;;;15.92;57.36;100365.69;5037849;27;97088;-80
2022/11/04 11:05:16;;;;;;;2.30;2.20;;;;;;;15.99;57.57;100356.69;5037766;27;104845;-81
2022/11/04 11:07:43;;;;;;;4.00;1.90;;;;;;;15.99;57.77;100356.69;5045291;27;101527;-82
2022/11/04 11:10:24;;;;;;;1.97;1.87;;;;;;;16.00;57.04;100360.97;5050819;27;97031;-82
2022/11/04 11:13:01;;;;;;;1.90;1.80;;;;;;;15.98;57.28;100374.63;5062108;27;96954;-80
2022/11/04 11:15:37;;;;;;;2.43;1.70;;;;;;;16.01;57.33;100370.75;5027381;27;104723;-82
2022/11/04 11:18:19;;;;;;;3.23;1.70;;;;;;;16.04;57.17;100371.72;5040599;27;97350;-80
2022/11/04 11:21:14;;;;;;;4.13;2.40;;;;;;;16.03;56.48;100378.56;5043346;27;97502;-81
2022/11/04 11:23:46;;;;;;;2.37;2.17;;;;;;;15.90;57.15;100371.00;5044803;27;96920;-81
2022/11/04 11:26:29;;;;;;;3.10;2.10;;;;;;;15.81;56.89;100379.78;5039961;27;97378;-82
2022/11/04 11:29:00;;;;;;;3.17;1.70;;;;;;;15.70;57.50;100369.63;5029278;27;97192;-81
2022/11/04 11:31:35;;;;;;;3.00;2.10;;;;;;;15.65;56.97;100381.59;5039235;27;97076;-80
2022/11/04 11:34:12;;;;;;;1.67;1.57;;;;;;;15.63;57.44;100377.84;5049400;27;97342;-81
2022/11/04 11:36:38;;;;;;;2.37;2.00;;;;;;;15.60;57.74;100368.56;5064345;27;102136;-81
2022/11/04 11:39:10;;;;;;;2.20;2.07;;;;;;;15.60;57.43;100365.03;5050733;27;97087;-82
2022/11/04 11:41:53;;;;;;;1.97;1.77;;;;;;;15.56;57.03;100370.91;5036704;27;96775;-81
2022/11/04 11:44:35;;;;;;;5.70;2.50;;;;;;;15.58;57.60;100360.03;5052126;27;96933;-82
2022/11/04 11:47:04;;;;;;;1.80;1.70;;;;;;;15.58;57.59;100364.84;5034323;27;97704;-81
2022/11/04 11:49:33;;;;;;;1.50;1.40;;;;;;;15.60;57.67;100365.03;5037868;27;97273;-81
2022/11/04 11:52:26;;;;;;;1.60;1.50;;;;;;;15.59;57.12;100367.09;5037117;27;96743;-83
2022/11/04 11:55:00;;;;;;;1.57;1.47;;;;;;;15.61;57.43;100369.31;5034893;27;96818;-81
2022/11/04 11:57:54;;;;;;;2.17;1.73;;;;;;;15.64;57.12;100373.78;5067566;27;102042;-82
2022/11/04 12:00:21;;;;;;;1.80;1.13;;;;;;;15.67;57.42;100381.06;5057478;27;100604;-82
2022/11/04 12:03:12;;;;;;;1.60;1.50;;;;;;;15.70;56.87;100388.31;5081805;27;96801;-80
2022/11/04 12:06:22;;;;;;;1.90;1.57;;;;;;;15.74;56.75;100386.72;5042906;27;97516;-80
2022/11/04 12:08:57;;;;;;;2.80;1.73;;;;;;;15.80;57.22;100383.06;4995084;27;101090;-80
2022/11/04 12:11:41;;;;;;;7.50;1.73;;;;;;;15.83;56.69;100388.31;5063756;27;97806;-81
2022/11/04 12:14:16;;;;;;;1.80;1.70;;;;;;;15.89;56.97;100388.94;5060510;27;97145;-80
2022/11/04 12:17:06;;;;;;;2.10;2.00;;;;;;;15.92;56.74;100396.19;5066228;27;96823;-80